sensor_id;sensor_type;location;lat;lon;timestamp;temperature;humidity
57857;DHT22;43683;48.650;9.290;2023-04-01T00:01:19;7.50;86.50
57857;DHT22;43683;48.650;9.290;2023-04-01T00:03:45;7.50;86.60
57857;DHT22;43683;48.650;9.290;2023-04-01T00:06:13;7.60;86.40
57857;DHT22;43683;48.650;9.290;2023-04-01T00:08:39;7.70;86.30
57857;DHT22;43683;48.650;9.290;2023-04-01T00:11:04;7.70;85.90
57857;DHT22;43683;48.650;9.290;2023-04-01T00:13:30;7.80;85.70
57857;DHT22;43683;48.650;9.290;2023-04-01T00:15:56;7.80;85.60
57857;DHT22;43683;48.650;9.290;2023-04-01T00:18:22;7.80;85.60
57857;DHT22;43683;48.650;9.290;2023-04-01T00:20:49;7.80;85.80
57857;DHT22;43683;48.650;9.290;2023-04-01T00:23:15;7.70;86.10
57857;DHT22;43683;48.650;9.290;2023-04-01T00:25:41;7.60;86.30
57857;DHT22;43683;48.650;9.290;2023-04-01T00:28:07;7.50;86.30
57857;DHT22;43683;48.650;9.290;2023-04-01T00:30:33;7.50;86.80
57857;DHT22;43683;48.650;9.290;2023-04-01T00:32:58;7.50;87.00
57857;DHT22;43683;48.650;9.290;2023-04-01T00:35:24;7.40;87.30
57857;DHT22;43683;48.650;9.290;2023-04-01T00:37:50;7.40;87.30
57857;DHT22;43683;48.650;9.290;2023-04-01T00:40:31;7.40;87.20
57857;DHT22;43683;48.650;9.290;2023-04-01T00:42:58;7.40;87.30
57857;DHT22;43683;48.650;9.290;2023-04-01T00:45:31;7.50;87.10
57857;DHT22;43683;48.650;9.290;2023-04-01T00:47:59;7.60;86.80
57857;DHT22;43683;48.650;9.290;2023-04-01T00:50:26;7.70;86.30
57857;DHT22;43683;48.650;9.290;2023-04-01T00:52:53;7.70;86.10
57857;DHT22;43683;48.650;9.290;2023-04-01T00:55:21;7.70;86.30
57857;DHT22;43683;48.650;9.290;2023-04-01T00:57:49;7.60;86.50
57857;DHT22;43683;48.650;9.290;2023-04-01T01:00:16;7.70;86.50
57857;DHT22;43683;48.650;9.290;2023-04-01T01:02:44;7.80;86.20
57857;DHT22;43683;48.650;9.290;2023-04-01T01:05:17;7.80;86.00
57857;DHT22;43683;48.650;9.290;2023-04-01T01:08:03;7.80;86.70
57857;DHT22;43683;48.650;9.290;2023-04-01T01:10:37;7.70;86.50
57857;DHT22;43683;48.650;9.290;2023-04-01T01:15:44;7.70;86.40
57857;DHT22;43683;48.650;9.290;2023-04-01T01:24:09;7.70;86.70
57857;DHT22;43683;48.650;9.290;2023-04-01T01:32:34;7.90;85.70
57857;DHT22;43683;48.650;9.290;2023-04-01T01:38:14;7.70;86.30
57857;DHT22;43683;48.650;9.290;2023-04-01T01:40:43;7.60;86.60
57857;DHT22;43683;48.650;9.290;2023-04-01T01:43:12;7.50;86.90
57857;DHT22;43683;48.650;9.290;2023-04-01T01:45:49;7.50;87.20
57857;DHT22;43683;48.650;9.290;2023-04-01T01:48:16;7.60;86.90
57857;DHT22;43683;48.650;9.290;2023-04-01T01:50:44;7.80;86.30
57857;DHT22;43683;48.650;9.290;2023-04-01T01:53:12;7.90;85.80
57857;DHT22;43683;48.650;9.290;2023-04-01T01:55:40;7.90;85.60
57857;DHT22;43683;48.650;9.290;2023-04-01T01:58:44;7.90;85.60
57857;DHT22;43683;48.650;9.290;2023-04-01T02:01:16;7.90;85.90
57857;DHT22;43683;48.650;9.290;2023-04-01T02:03:43;7.70;86.30
57857;DHT22;43683;48.650;9.290;2023-04-01T02:06:13;7.70;86.50
57857;DHT22;43683;48.650;9.290;2023-04-01T02:08:47;7.70;86.50
57857;DHT22;43683;48.650;9.290;2023-04-01T02:11:21;7.70;86.50
57857;DHT22;43683;48.650;9.290;2023-04-01T02:14:01;7.70;86.50
57857;DHT22;43683;48.650;9.290;2023-04-01T02:16:36;7.80;86.30
57857;DHT22;43683;48.650;9.290;2023-04-01T02:19:05;7.80;86.10
57857;DHT22;43683;48.650;9.290;2023-04-01T02:21:33;7.80;85.90
57857;DHT22;43683;48.650;9.290;2023-04-01T02:24:01;7.80;85.90
57857;DHT22;43683;48.650;9.290;2023-04-01T02:26:28;7.90;85.90
57857;DHT22;43683;48.650;9.290;2023-04-01T02:28:55;7.90;85.90
57857;DHT22;43683;48.650;9.290;2023-04-01T02:31:22;7.80;85.90
57857;DHT22;43683;48.650;9.290;2023-04-01T02:33:48;7.80;86.10
57857;DHT22;43683;48.650;9.290;2023-04-01T02:36:15;7.80;86.30
57857;DHT22;43683;48.650;9.290;2023-04-01T02:38:43;7.70;86.20
57857;DHT22;43683;48.650;9.290;2023-04-01T02:41:09;7.70;86.50
57857;DHT22;43683;48.650;9.290;2023-04-01T02:43:35;7.70;86.40
57857;DHT22;43683;48.650;9.290;2023-04-01T02:46:00;7.80;86.30
57857;DHT22;43683;48.650;9.290;2023-04-01T02:48:27;7.80;86.20
57857;DHT22;43683;48.650;9.290;2023-04-01T02:50:52;7.80;86.10
57857;DHT22;43683;48.650;9.290;2023-04-01T02:53:18;7.80;86.10
57857;DHT22;43683;48.650;9.290;2023-04-01T02:55:43;7.70;86.40
57857;DHT22;43683;48.650;9.290;2023-04-01T02:58:10;7.50;86.90
57857;DHT22;43683;48.650;9.290;2023-04-01T03:00:35;7.30;87.50
57857;DHT22;43683;48.650;9.290;2023-04-01T03:03:01;7.20;88.20
57857;DHT22;43683;48.650;9.290;2023-04-01T03:05:28;7.00;88.60
57857;DHT22;43683;48.650;9.290;2023-04-01T03:07:53;6.90;88.80
57857;DHT22;43683;48.650;9.290;2023-04-01T03:10:19;6.80;89.00
57857;DHT22;43683;48.650;9.290;2023-04-01T03:12:45;6.70;89.30
57857;DHT22;43683;48.650;9.290;2023-04-01T03:15:12;6.70;89.50
57857;DHT22;43683;48.650;9.290;2023-04-01T03:17:40;6.60;89.50
57857;DHT22;43683;48.650;9.290;2023-04-01T03:20:06;6.60;89.70
57857;DHT22;43683;48.650;9.290;2023-04-01T03:22:34;6.50;89.70
57857;DHT22;43683;48.650;9.290;2023-04-01T03:25:01;6.60;90.20
57857;DHT22;43683;48.650;9.290;2023-04-01T03:27:26;6.60;89.70
57857;DHT22;43683;48.650;9.290;2023-04-01T03:29:52;6.60;89.30
57857;DHT22;43683;48.650;9.290;2023-04-01T03:32:17;6.60;89.30
57857;DHT22;43683;48.650;9.290;2023-04-01T03:34:43;6.50;89.50
57857;DHT22;43683;48.650;9.290;2023-04-01T03:37:08;6.40;89.70
57857;DHT22;43683;48.650;9.290;2023-04-01T03:39:34;6.60;89.70
57857;DHT22;43683;48.650;9.290;2023-04-01T03:42:00;6.70;88.90
57857;DHT22;43683;48.650;9.290;2023-04-01T03:44:25;6.70;88.70
57857;DHT22;43683;48.650;9.290;2023-04-01T03:46:51;6.60;88.90
57857;DHT22;43683;48.650;9.290;2023-04-01T03:49:17;6.50;89.10
57857;DHT22;43683;48.650;9.290;2023-04-01T03:51:43;6.60;88.80
57857;DHT22;43683;48.650;9.290;2023-04-01T03:54:10;6.70;88.30
57857;DHT22;43683;48.650;9.290;2023-04-01T03:56:36;6.70;88.30
57857;DHT22;43683;48.650;9.290;2023-04-01T03:59:05;6.60;88.70
57857;DHT22;43683;48.650;9.290;2023-04-01T04:01:31;6.50;88.80
57857;DHT22;43683;48.650;9.290;2023-04-01T04:03:57;6.60;88.90
57857;DHT22;43683;48.650;9.290;2023-04-01T04:06:23;6.70;88.40
57857;DHT22;43683;48.650;9.290;2023-04-01T04:08:49;6.70;88.10
57857;DHT22;43683;48.650;9.290;2023-04-01T04:11:15;6.70;88.20
57857;DHT22;43683;48.650;9.290;2023-04-01T04:13:42;6.70;88.20
57857;DHT22;43683;48.650;9.290;2023-04-01T04:16:08;6.60;88.30
57857;DHT22;43683;48.650;9.290;2023-04-01T04:18:35;6.50;88.60
57857;DHT22;43683;48.650;9.290;2023-04-01T04:21:00;6.40;88.80
57857;DHT22;43683;48.650;9.290;2023-04-01T04:23:26;6.30;89.10
57857;DHT22;43683;48.650;9.290;2023-04-01T04:26:05;6.20;89.30
57857;DHT22;43683;48.650;9.290;2023-04-01T04:28:31;6.10;89.70
57857;DHT22;43683;48.650;9.290;2023-04-01T04:30:57;6.00;89.80
57857;DHT22;43683;48.650;9.290;2023-04-01T04:33:23;6.00;90.00
57857;DHT22;43683;48.650;9.290;2023-04-01T04:35:49;5.90;90.00
57857;DHT22;43683;48.650;9.290;2023-04-01T04:38:16;5.90;90.10
57857;DHT22;43683;48.650;9.290;2023-04-01T04:40:42;5.90;90.10
57857;DHT22;43683;48.650;9.290;2023-04-01T04:43:11;5.90;90.10
57857;DHT22;43683;48.650;9.290;2023-04-01T04:45:37;5.80;90.10
57857;DHT22;43683;48.650;9.290;2023-04-01T04:48:03;5.70;90.20
57857;DHT22;43683;48.650;9.290;2023-04-01T04:50:28;5.70;90.30
57857;DHT22;43683;48.650;9.290;2023-04-01T04:52:54;5.80;90.30
57857;DHT22;43683;48.650;9.290;2023-04-01T04:55:20;5.80;90.20
57857;DHT22;43683;48.650;9.290;2023-04-01T04:57:46;5.90;90.10
57857;DHT22;43683;48.650;9.290;2023-04-01T05:00:11;6.10;89.80
57857;DHT22;43683;48.650;9.290;2023-04-01T05:02:37;6.30;89.20
57857;DHT22;43683;48.650;9.290;2023-04-01T05:05:03;6.40;89.00
57857;DHT22;43683;48.650;9.290;2023-04-01T05:07:29;6.50;88.60
57857;DHT22;43683;48.650;9.290;2023-04-01T05:09:55;6.60;88.20
57857;DHT22;43683;48.650;9.290;2023-04-01T05:12:20;6.80;87.80
57857;DHT22;43683;48.650;9.290;2023-04-01T05:14:46;6.90;88.40
57857;DHT22;43683;48.650;9.290;2023-04-01T05:17:12;6.90;87.70
57857;DHT22;43683;48.650;9.290;2023-04-01T05:19:38;7.00;87.60
57857;DHT22;43683;48.650;9.290;2023-04-01T05:22:04;7.10;87.40
57857;DHT22;43683;48.650;9.290;2023-04-01T05:24:30;7.20;87.20
57857;DHT22;43683;48.650;9.290;2023-04-01T05:26:56;7.30;86.90
57857;DHT22;43683;48.650;9.290;2023-04-01T05:29:23;7.40;86.80
57857;DHT22;43683;48.650;9.290;2023-04-01T05:31:49;7.50;86.60
57857;DHT22;43683;48.650;9.290;2023-04-01T05:34:14;7.50;86.40
57857;DHT22;43683;48.650;9.290;2023-04-01T05:36:40;7.50;86.40
57857;DHT22;43683;48.650;9.290;2023-04-01T05:39:07;7.50;86.60
57857;DHT22;43683;48.650;9.290;2023-04-01T05:41:35;7.40;86.90
57857;DHT22;43683;48.650;9.290;2023-04-01T05:44:01;7.40;87.20
57857;DHT22;43683;48.650;9.290;2023-04-01T05:46:27;7.40;87.30
57857;DHT22;43683;48.650;9.290;2023-04-01T05:48:52;7.40;87.20
57857;DHT22;43683;48.650;9.290;2023-04-01T05:51:18;7.50;87.20
57857;DHT22;43683;48.650;9.290;2023-04-01T05:53:43;7.60;87.10
57857;DHT22;43683;48.650;9.290;2023-04-01T05:56:09;7.70;86.80
57857;DHT22;43683;48.650;9.290;2023-04-01T05:58:36;7.70;86.60
57857;DHT22;43683;48.650;9.290;2023-04-01T06:01:06;7.80;86.50
57857;DHT22;43683;48.650;9.290;2023-04-01T06:03:32;7.80;86.40
57857;DHT22;43683;48.650;9.290;2023-04-01T06:05:58;7.90;86.30
57857;DHT22;43683;48.650;9.290;2023-04-01T06:08:26;7.90;86.00
57857;DHT22;43683;48.650;9.290;2023-04-01T06:13:50;8.10;85.60
57857;DHT22;43683;48.650;9.290;2023-04-01T06:19:59;8.30;85.30
57857;DHT22;43683;48.650;9.290;2023-04-01T06:22:46;8.30;85.00
57857;DHT22;43683;48.650;9.290;2023-04-01T06:28:40;8.60;84.50
57857;DHT22;43683;48.650;9.290;2023-04-01T06:30:42;8.70;84.30
57857;DHT22;43683;48.650;9.290;2023-04-01T06:36:11;9.00;83.20
57857;DHT22;43683;48.650;9.290;2023-04-01T06:38:49;9.20;82.70
57857;DHT22;43683;48.650;9.290;2023-04-01T06:41:53;9.30;82.40
57857;DHT22;43683;48.650;9.290;2023-04-01T06:53:37;9.60;81.60
57857;DHT22;43683;48.650;9.290;2023-04-01T06:56:10;9.70;81.40
57857;DHT22;43683;48.650;9.290;2023-04-01T06:58:45;9.80;81.30
57857;DHT22;43683;48.650;9.290;2023-04-01T07:01:18;9.80;81.30
57857;DHT22;43683;48.650;9.290;2023-04-01T07:04:31;9.90;81.30
57857;DHT22;43683;48.650;9.290;2023-04-01T07:07:14;9.80;81.20
57857;DHT22;43683;48.650;9.290;2023-04-01T07:09:45;9.90;81.80
57857;DHT22;43683;48.650;9.290;2023-04-01T07:12:26;9.90;80.80
57857;DHT22;43683;48.650;9.290;2023-04-01T07:14:56;10.00;80.60
57857;DHT22;43683;48.650;9.290;2023-04-01T07:17:25;10.00;80.50
57857;DHT22;43683;48.650;9.290;2023-04-01T07:20:05;10.00;80.40
57857;DHT22;43683;48.650;9.290;2023-04-01T07:22:40;10.10;80.40
57857;DHT22;43683;48.650;9.290;2023-04-01T07:27:58;10.00;80.20
57857;DHT22;43683;48.650;9.290;2023-04-01T07:30:30;10.00;80.30
57857;DHT22;43683;48.650;9.290;2023-04-01T07:33:19;10.00;80.20
57857;DHT22;43683;48.650;9.290;2023-04-01T07:36:03;10.00;79.80
57857;DHT22;43683;48.650;9.290;2023-04-01T07:38:38;10.10;79.70
57857;DHT22;43683;48.650;9.290;2023-04-01T07:41:44;10.20;79.60
57857;DHT22;43683;48.650;9.290;2023-04-01T07:47:31;10.20;79.20
57857;DHT22;43683;48.650;9.290;2023-04-01T07:50:11;10.20;79.30
57857;DHT22;43683;48.650;9.290;2023-04-01T07:55:58;10.10;79.40
57857;DHT22;43683;48.650;9.290;2023-04-01T07:58:54;10.10;79.20
57857;DHT22;43683;48.650;9.290;2023-04-01T08:01:41;10.20;79.00
57857;DHT22;43683;48.650;9.290;2023-04-01T08:04:21;10.20;78.80
57857;DHT22;43683;48.650;9.290;2023-04-01T08:07:05;10.30;78.50
57857;DHT22;43683;48.650;9.290;2023-04-01T08:20:51;10.50;78.00
57857;DHT22;43683;48.650;9.290;2023-04-01T08:23:37;10.50;77.90
57857;DHT22;43683;48.650;9.290;2023-04-01T08:26:19;10.40;78.00
57857;DHT22;43683;48.650;9.290;2023-04-01T08:29:12;10.30;78.00
57857;DHT22;43683;48.650;9.290;2023-04-01T08:31:51;10.20;78.30
57857;DHT22;43683;48.650;9.290;2023-04-01T08:34:23;10.20;78.30
57857;DHT22;43683;48.650;9.290;2023-04-01T08:36:58;10.20;78.30
57857;DHT22;43683;48.650;9.290;2023-04-01T08:39:34;10.20;78.30
57857;DHT22;43683;48.650;9.290;2023-04-01T08:48:00;10.30;77.60
57857;DHT22;43683;48.650;9.290;2023-04-01T09:02:04;9.80;78.40
57857;DHT22;43683;48.650;9.290;2023-04-01T09:04:57;9.60;78.90
57857;DHT22;43683;48.650;9.290;2023-04-01T09:27:03;10.00;78.50
57857;DHT22;43683;48.650;9.290;2023-04-01T09:30:34;10.40;77.60
57857;DHT22;43683;48.650;9.290;2023-04-01T09:32:50;10.80;76.90
57857;DHT22;43683;48.650;9.290;2023-04-01T09:40:57;11.40;76.20
57857;DHT22;43683;48.650;9.290;2023-04-01T09:46:58;11.20;76.50
57857;DHT22;43683;48.650;9.290;2023-04-01T09:49:40;11.10;77.10
57857;DHT22;43683;48.650;9.290;2023-04-01T09:52:21;11.00;77.40
57857;DHT22;43683;48.650;9.290;2023-04-01T09:55:10;10.70;78.50
57857;DHT22;43683;48.650;9.290;2023-04-01T10:03:58;10.50;78.60
57857;DHT22;43683;48.650;9.290;2023-04-01T10:06:48;10.50;78.30
57857;DHT22;43683;48.650;9.290;2023-04-01T10:09:28;10.40;77.90
57857;DHT22;43683;48.650;9.290;2023-04-01T10:18:25;10.20;78.70
57857;DHT22;43683;48.650;9.290;2023-04-01T10:27:18;10.10;78.70
57857;DHT22;43683;48.650;9.290;2023-04-01T10:30:28;10.10;78.40
57857;DHT22;43683;48.650;9.290;2023-04-01T10:58:01;11.90;75.10
57857;DHT22;43683;48.650;9.290;2023-04-01T11:03:45;12.30;74.10
57857;DHT22;43683;48.650;9.290;2023-04-01T11:15:02;12.40;73.70
57857;DHT22;43683;48.650;9.290;2023-04-01T11:17:57;12.10;73.90
57857;DHT22;43683;48.650;9.290;2023-04-01T11:23:29;12.20;74.10
57857;DHT22;43683;48.650;9.290;2023-04-01T11:26:08;12.00;74.40
57857;DHT22;43683;48.650;9.290;2023-04-01T11:31:43;12.10;73.90
57857;DHT22;43683;48.650;9.290;2023-04-01T11:44:39;12.00;73.20
57857;DHT22;43683;48.650;9.290;2023-04-01T11:47:44;12.00;72.90
57857;DHT22;43683;48.650;9.290;2023-04-01T11:58:18;12.00;72.60
57857;DHT22;43683;48.650;9.290;2023-04-01T12:09:23;12.20;71.30
57857;DHT22;43683;48.650;9.290;2023-04-01T12:17:27;12.20;71.90
57857;DHT22;43683;48.650;9.290;2023-04-01T12:25:41;12.60;70.80
57857;DHT22;43683;48.650;9.290;2023-04-01T12:36:45;12.90;70.00
57857;DHT22;43683;48.650;9.290;2023-04-01T12:39:42;13.10;69.80
57857;DHT22;43683;48.650;9.290;2023-04-01T12:45:28;13.50;68.90
57857;DHT22;43683;48.650;9.290;2023-04-01T12:48:05;13.40;69.00
57857;DHT22;43683;48.650;9.290;2023-04-01T12:53:43;12.80;69.60
57857;DHT22;43683;48.650;9.290;2023-04-01T13:09:35;13.00;69.60
57857;DHT22;43683;48.650;9.290;2023-04-01T13:15:16;14.10;68.00
57857;DHT22;43683;48.650;9.290;2023-04-01T13:17:57;13.90;68.00
57857;DHT22;43683;48.650;9.290;2023-04-01T13:28:38;14.40;67.00
57857;DHT22;43683;48.650;9.290;2023-04-01T13:31:24;14.80;66.00
57857;DHT22;43683;48.650;9.290;2023-04-01T13:34:16;15.00;66.00
57857;DHT22;43683;48.650;9.290;2023-04-01T13:36:54;14.60;64.80
57857;DHT22;43683;48.650;9.290;2023-04-01T13:40:02;14.50;65.20
57857;DHT22;43683;48.650;9.290;2023-04-01T13:42:40;14.20;65.60
57857;DHT22;43683;48.650;9.290;2023-04-01T13:45:24;14.00;66.00
57857;DHT22;43683;48.650;9.290;2023-04-01T13:50:42;13.90;66.20
57857;DHT22;43683;48.650;9.290;2023-04-01T13:53:17;13.50;66.20
57857;DHT22;43683;48.650;9.290;2023-04-01T13:59:27;13.50;66.60
57857;DHT22;43683;48.650;9.290;2023-04-01T14:10:48;13.20;66.40
57857;DHT22;43683;48.650;9.290;2023-04-01T14:16:14;13.10;66.80
57857;DHT22;43683;48.650;9.290;2023-04-01T14:19:02;13.10;66.50
57857;DHT22;43683;48.650;9.290;2023-04-01T14:24:43;13.00;66.50
57857;DHT22;43683;48.650;9.290;2023-04-01T14:27:31;12.90;66.50
57857;DHT22;43683;48.650;9.290;2023-04-01T14:30:20;12.80;66.60
57857;DHT22;43683;48.650;9.290;2023-04-01T14:35:37;12.60;67.10
57857;DHT22;43683;48.650;9.290;2023-04-01T14:38:33;12.30;67.50
57857;DHT22;43683;48.650;9.290;2023-04-01T14:41:32;12.00;67.70
57857;DHT22;43683;48.650;9.290;2023-04-01T14:50:17;12.00;68.30
57857;DHT22;43683;48.650;9.290;2023-04-01T14:56:01;12.10;68.30
57857;DHT22;43683;48.650;9.290;2023-04-01T14:58:49;12.10;68.20
57857;DHT22;43683;48.650;9.290;2023-04-01T15:18:08;11.90;68.60
57857;DHT22;43683;48.650;9.290;2023-04-01T15:23:40;11.80;68.90
57857;DHT22;43683;48.650;9.290;2023-04-01T15:31:59;11.80;68.80
57857;DHT22;43683;48.650;9.290;2023-04-01T15:34:48;11.90;69.00
57857;DHT22;43683;48.650;9.290;2023-04-01T15:45:31;11.90;69.10
57857;DHT22;43683;48.650;9.290;2023-04-01T15:48:22;11.80;69.30
57857;DHT22;43683;48.650;9.290;2023-04-01T15:56:29;11.50;69.90
57857;DHT22;43683;48.650;9.290;2023-04-01T16:02:12;11.50;70.30
57857;DHT22;43683;48.650;9.290;2023-04-01T16:04:47;11.40;70.40
57857;DHT22;43683;48.650;9.290;2023-04-01T16:10:35;11.30;70.80
57857;DHT22;43683;48.650;9.290;2023-04-01T16:13:27;11.10;71.10
57857;DHT22;43683;48.650;9.290;2023-04-01T16:18:58;10.80;72.70
57857;DHT22;43683;48.650;9.290;2023-04-01T16:24:44;10.60;72.60
57857;DHT22;43683;48.650;9.290;2023-04-01T16:27:16;10.50;73.00
57857;DHT22;43683;48.650;9.290;2023-04-01T16:32:44;10.60;72.90
57857;DHT22;43683;48.650;9.290;2023-04-01T16:35:40;10.60;72.80
57857;DHT22;43683;48.650;9.290;2023-04-01T16:41:17;10.60;73.20
57857;DHT22;43683;48.650;9.290;2023-04-01T16:43:53;10.50;73.40
57857;DHT22;43683;48.650;9.290;2023-04-01T16:46:40;10.50;73.50
57857;DHT22;43683;48.650;9.290;2023-04-01T16:51:54;10.40;73.80
57857;DHT22;43683;48.650;9.290;2023-04-01T16:57:19;10.50;73.70
57857;DHT22;43683;48.650;9.290;2023-04-01T16:59:54;10.50;73.70
57857;DHT22;43683;48.650;9.290;2023-04-01T17:02:57;10.50;73.80
57857;DHT22;43683;48.650;9.290;2023-04-01T17:11:19;10.50;73.90
57857;DHT22;43683;48.650;9.290;2023-04-01T17:19:28;10.30;74.10
57857;DHT22;43683;48.650;9.290;2023-04-01T17:35:57;10.00;74.80
57857;DHT22;43683;48.650;9.290;2023-04-01T17:44:18;9.90;75.10
57857;DHT22;43683;48.650;9.290;2023-04-01T17:55:43;9.60;75.60
57857;DHT22;43683;48.650;9.290;2023-04-01T17:58:17;9.60;75.60
57857;DHT22;43683;48.650;9.290;2023-04-01T18:03:53;9.60;75.80
57857;DHT22;43683;48.650;9.290;2023-04-01T18:09:22;9.70;75.50
57857;DHT22;43683;48.650;9.290;2023-04-01T18:20:36;9.70;75.90
57857;DHT22;43683;48.650;9.290;2023-04-01T18:23:24;9.70;75.80
57857;DHT22;43683;48.650;9.290;2023-04-01T18:26:04;9.80;75.50
57857;DHT22;43683;48.650;9.290;2023-04-01T18:31:07;9.90;75.10
57857;DHT22;43683;48.650;9.290;2023-04-01T18:36:32;9.80;75.30
57857;DHT22;43683;48.650;9.290;2023-04-01T18:39:19;9.70;75.50
57857;DHT22;43683;48.650;9.290;2023-04-01T18:42:19;9.40;76.70
57857;DHT22;43683;48.650;9.290;2023-04-01T18:44:51;9.00;78.70
57857;DHT22;43683;48.650;9.290;2023-04-01T18:50:24;8.50;79.70
57857;DHT22;43683;48.650;9.290;2023-04-01T18:52:58;8.30;80.40
57857;DHT22;43683;48.650;9.290;2023-04-01T18:55:33;8.10;80.70
57857;DHT22;43683;48.650;9.290;2023-04-01T18:58:32;8.00;81.10
57857;DHT22;43683;48.650;9.290;2023-04-01T19:01:26;7.90;81.20
57857;DHT22;43683;48.650;9.290;2023-04-01T19:03:57;7.80;80.90
57857;DHT22;43683;48.650;9.290;2023-04-01T19:08:52;7.60;81.30
57857;DHT22;43683;48.650;9.290;2023-04-01T19:19:41;7.10;82.90
57857;DHT22;43683;48.650;9.290;2023-04-01T19:27:41;6.70;83.60
57857;DHT22;43683;48.650;9.290;2023-04-01T19:30:17;6.60;83.80
57857;DHT22;43683;48.650;9.290;2023-04-01T19:33:07;6.50;84.00
57857;DHT22;43683;48.650;9.290;2023-04-01T19:35:47;6.30;84.80
57857;DHT22;43683;48.650;9.290;2023-04-01T19:38:39;6.20;85.00
57857;DHT22;43683;48.650;9.290;2023-04-01T19:44:21;6.00;85.80
57857;DHT22;43683;48.650;9.290;2023-04-01T19:47:13;6.00;86.00
57857;DHT22;43683;48.650;9.290;2023-04-01T19:49:52;5.90;86.20
57857;DHT22;43683;48.650;9.290;2023-04-01T19:52:30;5.70;86.40
57857;DHT22;43683;48.650;9.290;2023-04-01T19:58:21;5.60;87.30
57857;DHT22;43683;48.650;9.290;2023-04-01T20:00:53;5.50;87.10
57857;DHT22;43683;48.650;9.290;2023-04-01T20:03:38;5.50;87.30
57857;DHT22;43683;48.650;9.290;2023-04-01T20:09:23;5.70;87.00
57857;DHT22;43683;48.650;9.290;2023-04-01T20:11:59;5.70;87.00
57857;DHT22;43683;48.650;9.290;2023-04-01T20:25:21;6.10;86.80
57857;DHT22;43683;48.650;9.290;2023-04-01T20:41:38;6.40;86.80
57857;DHT22;43683;48.650;9.290;2023-04-01T20:44:34;6.50;86.50
57857;DHT22;43683;48.650;9.290;2023-04-01T20:48:11;6.60;86.80
57857;DHT22;43683;48.650;9.290;2023-04-01T20:50:24;6.60;85.80
57857;DHT22;43683;48.650;9.290;2023-04-01T20:53:24;6.70;85.60
57857;DHT22;43683;48.650;9.290;2023-04-01T20:56:06;6.80;85.80
57857;DHT22;43683;48.650;9.290;2023-04-01T20:58:46;6.80;85.80
57857;DHT22;43683;48.650;9.290;2023-04-01T21:07:40;7.00;86.00
57857;DHT22;43683;48.650;9.290;2023-04-01T21:10:36;7.00;85.90
57857;DHT22;43683;48.650;9.290;2023-04-01T21:16:08;7.10;86.00
57857;DHT22;43683;48.650;9.290;2023-04-01T21:21:35;7.20;85.90
57857;DHT22;43683;48.650;9.290;2023-04-01T21:27:39;7.40;85.90
57857;DHT22;43683;48.650;9.290;2023-04-01T21:41:26;7.20;86.80
57857;DHT22;43683;48.650;9.290;2023-04-01T22:04:57;7.50;86.00
57857;DHT22;43683;48.650;9.290;2023-04-01T22:07:41;7.50;85.70
57857;DHT22;43683;48.650;9.290;2023-04-01T22:15:20;7.50;86.20
57857;DHT22;43683;48.650;9.290;2023-04-01T22:18:04;7.40;86.40
57857;DHT22;43683;48.650;9.290;2023-04-01T22:23:20;7.40;86.70
57857;DHT22;43683;48.650;9.290;2023-04-01T22:26:16;7.40;86.60
57857;DHT22;43683;48.650;9.290;2023-04-01T22:28:54;7.40;87.00
57857;DHT22;43683;48.650;9.290;2023-04-01T22:31:28;7.30;87.10
57857;DHT22;43683;48.650;9.290;2023-04-01T22:34:15;7.30;87.20
57857;DHT22;43683;48.650;9.290;2023-04-01T22:36:57;7.30;87.30
57857;DHT22;43683;48.650;9.290;2023-04-01T22:42:21;7.30;87.20
57857;DHT22;43683;48.650;9.290;2023-04-01T22:52:41;7.30;86.40
57857;DHT22;43683;48.650;9.290;2023-04-01T22:57:59;7.40;86.50
57857;DHT22;43683;48.650;9.290;2023-04-01T23:00:33;7.40;86.60
57857;DHT22;43683;48.650;9.290;2023-04-01T23:03:09;7.40;86.60
57857;DHT22;43683;48.650;9.290;2023-04-01T23:05:40;7.40;86.70
57857;DHT22;43683;48.650;9.290;2023-04-01T23:08:39;7.40;86.80
57857;DHT22;43683;48.650;9.290;2023-04-01T23:11:10;7.40;86.90
57857;DHT22;43683;48.650;9.290;2023-04-01T23:13:47;7.30;86.90
57857;DHT22;43683;48.650;9.290;2023-04-01T23:16:30;7.30;87.00
57857;DHT22;43683;48.650;9.290;2023-04-01T23:19:04;7.30;87.10
57857;DHT22;43683;48.650;9.290;2023-04-01T23:22:13;7.20;87.20
57857;DHT22;43683;48.650;9.290;2023-04-01T23:27:40;7.00;88.00
57857;DHT22;43683;48.650;9.290;2023-04-01T23:36:09;6.90;88.50
57857;DHT22;43683;48.650;9.290;2023-04-01T23:38:39;6.80;88.30
57857;DHT22;43683;48.650;9.290;2023-04-01T23:41:08;6.80;88.10
57857;DHT22;43683;48.650;9.290;2023-04-01T23:43:36;6.90;88.10
57857;DHT22;43683;48.650;9.290;2023-04-01T23:46:05;6.90;88.00
57857;DHT22;43683;48.650;9.290;2023-04-01T23:48:36;6.90;87.80
57857;DHT22;43683;48.650;9.290;2023-04-01T23:51:03;6.90;87.70
57857;DHT22;43683;48.650;9.290;2023-04-01T23:53:43;6.90;87.70
57857;DHT22;43683;48.650;9.290;2023-04-01T23:56:10;6.90;87.80
57857;DHT22;43683;48.650;9.290;2023-04-01T23:58:41;6.90;87.90
